Lucy Hannah — WDC7682 — position and weather

sailwx.info

Track history (hours):
 
Tides and Currents Weather Stations Pressure Air Temp Water Temp Dewpoint Dewpoint Depression Visibility Wind Speed Wind Dir Waves Ship Positions

Lucy Hannah

Owner: D&S Marine Service,LLC., Houma, LA. More information available from US FCC via Universal Licensing System and Coast Guard Vessel Documentation Center.

Last reported at 2018-May-20 15:30 UTC. Time now 2018-May-20 15:39 UTC.
Position N 29°60' W 093°55'.

Length 19 m; draft 3 m.

Type: . MMSI: 367075110.

Date/timePositionNaut miles runAvg speedWind from/ knotsBaromVisibWave heightAir tempDewpointWater temp
2018-May-20 15:30N 29°60' W 093°55'0 0.0
2018-May-20 15:00N 29°60' W 093°55'0 0.0
2018-May-20 14:30N 29°60' W 093°55'0 0.0
2018-May-20 14:00N 29°60' W 093°55'0 0.0
2018-May-20 13:30N 29°60' W 093°55'0 0.0
2018-May-20 13:00N 29°60' W 093°55'0 0.0
2018-May-20 12:30N 29°60' W 093°55'0 0.0
2018-May-20 12:00N 29°60' W 093°55'0 0.0
2018-May-20 11:30N 29°60' W 093°55'0 0.0
2018-May-20 11:00N 29°60' W 093°55'0 0.0
2018-May-20 10:30N 29°60' W 093°55'0 0.0
2018-May-20 10:00N 29°60' W 093°55'0 0.0
2018-May-20 09:30N 29°60' W 093°55'0 0.0
2018-May-20 09:00N 29°60' W 093°55'0 0.0
2018-May-20 08:30N 29°60' W 093°55'0 0.0
2018-May-20 08:00N 29°60' W 093°55'0 0.0
2018-May-20 07:30N 29°60' W 093°55'0 0.0
2018-May-20 07:00N 29°60' W 093°55'0 0.0
2018-May-20 06:30N 29°60' W 093°55'0 0.0
2018-May-20 06:00N 29°60' W 093°55'0 0.0
2018-May-20 05:30N 29°60' W 093°55'0 0.0
2018-May-20 05:00N 29°60' W 093°55'0 0.0
2018-May-20 04:30N 29°60' W 093°55'0 0.0
2018-May-20 04:00N 29°60' W 093°55'0 0.0
2018-May-20 03:30N 29°60' W 093°55'0 0.0
2018-May-20 03:00N 29°60' W 093°55'0 0.0
2018-May-20 02:30N 29°60' W 093°55'0 0.0
2018-May-20 02:00N 29°60' W 093°55'0 0.0
2018-May-20 01:28N 29°60' W 093°55'0 0.0
2018-May-20 00:58N 29°60' W 093°55'0 0.0
2018-May-20 00:28N 29°60' W 093°55'0 0.0
2018-May-19 23:58N 29°60' W 093°55'0 0.0
2018-May-19 23:28N 29°60' W 093°55'0 0.0
2018-May-19 22:58N 29°60' W 093°55'0 0.0
2018-May-19 22:28N 29°60' W 093°55'0 0.0
2018-May-19 21:58N 29°60' W 093°55'0 0.0
2018-May-19 21:28N 29°60' W 093°55'0 0.0
2018-May-19 20:58N 29°60' W 093°55'0 0.0
2018-May-19 20:28N 29°60' W 093°55'0 0.0
2018-May-19 19:58N 29°60' W 093°55'0 0.0
2018-May-19 19:28N 29°60' W 093°55'0 0.0
2018-May-19 18:58N 29°60' W 093°55'0 0.0
2018-May-19 18:28N 29°60' W 093°55'0 0.0
2018-May-19 17:58N 29°60' W 093°55'0 0.0
2018-May-19 17:28N 29°60' W 093°55'0 0.0
2018-May-19 16:58N 29°60' W 093°55'0 0.0
2018-May-19 16:28N 29°60' W 093°55'0 0.0
2018-May-19 15:58N 29°60' W 093°55'0 0.0
2018-May-19 15:28N 29°60' W 093°55'0 0.0
2018-May-19 14:58N 29°60' W 093°55'0 0.0
2018-May-19 14:28N 29°60' W 093°55'0 0.0
2018-May-19 13:58N 29°60' W 093°55'0 0.0
2018-May-19 13:28N 29°60' W 093°55'0 0.0
2018-May-19 12:58N 29°60' W 093°55'0 0.0
2018-May-19 12:28N 29°60' W 093°55'0 0.0
2018-May-19 11:58N 29°60' W 093°55'0 0.0
2018-May-19 11:28N 29°60' W 093°55'0 0.1
2018-May-19 11:00N 29°60' W 093°55'3 5.4
2018-May-19 10:30N 29°59' W 093°52'1 1.8
2018-May-19 10:00N 29°58' W 093°51'2 3.1
2018-May-19 09:30N 29°59' W 093°49'4 7.2
2018-May-19 09:00N 30°01' W 093°46'3 5.5
2018-May-19 08:30N 30°03' W 093°44'0 0.3
2018-May-19 08:00N 30°03' W 093°44'0 0.5
2018-May-19 07:30N 30°03' W 093°44'2 3.2
2018-May-19 07:00N 30°02' W 093°44'3 5.2
2018-May-19 06:30N 29°60' W 093°46'3 5.2
2018-May-19 06:00N 29°59' W 093°49'3 5.6
2018-May-19 05:30N 29°59' W 093°53'2 3.7
2018-May-19 04:58N 29°60' W 093°55'0 0.0
2018-May-19 04:28N 29°60' W 093°55'0 0.0
2018-May-19 03:58N 29°60' W 093°55'0 0.0
2018-May-19 03:28N 29°60' W 093°55'0 0.0
2018-May-19 02:58N 29°60' W 093°55'0 0.0
2018-May-19 02:28N 29°60' W 093°55'0 0.0
2018-May-19 01:58N 29°60' W 093°55'0 0.0
2018-May-19 01:28N 29°60' W 093°55'0 0.0
2018-May-19 00:58N 29°60' W 093°55'0 0.0
2018-May-19 00:28N 29°60' W 093°55'0 0.0
2018-May-18 23:58N 29°60' W 093°55'0 0.0
2018-May-18 23:28N 29°60' W 093°55'0 0.0
2018-May-18 22:58N 29°60' W 093°55'0 0.0
2018-May-18 22:28N 29°60' W 093°55'0 0.0
2018-May-18 21:58N 29°60' W 093°55'0 0.0
2018-May-18 21:28N 29°60' W 093°55'0 0.0
2018-May-18 20:58N 29°60' W 093°55'0 0.0
2018-May-18 20:28N 29°60' W 093°55'0 0.0
2018-May-18 19:58N 29°60' W 093°55'0 0.0
2018-May-18 19:28N 29°60' W 093°55'0 0.0
2018-May-18 18:58N 29°60' W 093°55'0 0.0
2018-May-18 18:28N 29°60' W 093°55'0 0.0
2018-May-18 17:58N 29°60' W 093°55'0 0.0
2018-May-18 17:28N 29°60' W 093°55'0 0.0
2018-May-18 16:58N 29°60' W 093°55'0 0.0
2018-May-18 16:28N 29°60' W 093°55'0 0.0
2018-May-18 15:58N 29°60' W 093°55'0 0.0
2018-May-18 15:25N 29°60' W 093°55'0 0.0
2018-May-18 14:58N 29°60' W 093°55'0 0.0
2018-May-18 14:28N 29°60' W 093°55'0 0.0
2018-May-18 13:58N 29°60' W 093°55'0 0.0
2018-May-18 13:28N 29°60' W 093°55'0 0.0
2018-May-18 12:58N 29°60' W 093°55'0 0.0
2018-May-18 12:28N 29°60' W 093°55'0 0.0
2018-May-18 11:58N 29°60' W 093°55'0 0.0
2018-May-18 11:28N 29°60' W 093°55'0 0.0
2018-May-18 10:58N 29°60' W 093°55'0 0.0
2018-May-18 10:28N 29°60' W 093°55'0 0.0
2018-May-18 09:58N 29°60' W 093°55'0 0.0
2018-May-18 09:28N 29°60' W 093°55'0 0.0
2018-May-18 08:58N 29°60' W 093°55'0 0.0
2018-May-18 08:28N 29°60' W 093°55'0 0.0
2018-May-18 07:58N 29°60' W 093°55'0 0.0
2018-May-18 07:28N 29°60' W 093°55'0 0.0
2018-May-18 06:58N 29°60' W 093°55'0 0.0
2018-May-18 06:28N 29°60' W 093°55'0 0.0
2018-May-18 05:58N 29°60' W 093°55'0 0.0
2018-May-18 05:28N 29°60' W 093°55'0 0.0
2018-May-18 04:58N 29°60' W 093°55'0 0.0
2018-May-18 04:28N 29°60' W 093°55'0 0.0
2018-May-18 03:58N 29°60' W 093°55'0 0.0
2018-May-18 03:28N 29°60' W 093°55'0 0.0
2018-May-18 02:58N 29°60' W 093°55'0 0.0
2018-May-18 02:28N 29°60' W 093°55'0 0.0
2018-May-18 01:58N 29°60' W 093°55'0 0.0
2018-May-18 01:28N 29°60' W 093°55'0 0.0
2018-May-18 00:58N 29°60' W 093°55'0 0.0
2018-May-18 00:28N 29°60' W 093°55'0 0.0
2018-May-17 23:58N 29°60' W 093°55'0 0.0
2018-May-17 23:28N 29°60' W 093°55'0 0.0
2018-May-17 22:58N 29°60' W 093°55'0 0.0
2018-May-17 22:28N 29°60' W 093°55'0 0.0
2018-May-17 21:58N 29°60' W 093°55'0 0.0
2018-May-17 21:28N 29°60' W 093°55'0 0.0
2018-May-17 20:58N 29°60' W 093°55'0 0.0
2018-May-17 20:28N 29°60' W 093°55'0 0.0
2018-May-17 19:58N 29°60' W 093°55'0 0.0
2018-May-17 19:28N 29°60' W 093°55'0 0.0
2018-May-17 18:58N 29°60' W 093°55'0 0.0
2018-May-17 18:28N 29°60' W 093°55'0 0.6
2018-May-17 18:00N 29°59' W 093°54'3 5.6
2018-May-17 17:30N 29°58' W 093°51'1 1.0
2018-May-17 17:00N 29°58' W 093°51'0 0.0
2018-May-17 16:30N 29°58' W 093°51'1 1.1
2018-May-17 16:00N 29°58' W 093°51'3 6.0
2018-May-17 15:30N 29°60' W 093°55'0 0.0
2018-May-17 14:59N 29°60' W 093°55'0 0.0
2018-May-17 14:30N 29°60' W 093°55'0 0.0
2018-May-17 14:00N 29°60' W 093°55'0 0.0
2018-May-17 13:29N 29°60' W 093°55'0 0.0
2018-May-17 12:59N 29°60' W 093°55'0 0.0
2018-May-17 12:30N 29°60' W 093°55'0 0.0
2018-May-17 11:59N 29°60' W 093°55'0 0.0
2018-May-17 11:29N 29°60' W 093°55'0 0.0
2018-May-17 10:59N 29°60' W 093°55'0 0.0
2018-May-17 10:29N 29°60' W 093°55'0 0.0
2018-May-17 09:59N 29°60' W 093°55'0 0.0
2018-May-17 09:30N 29°60' W 093°55'0 0.0
2018-May-17 08:59N 29°60' W 093°55'0 0.0
2018-May-17 08:29N 29°60' W 093°55'0 0.0
2018-May-17 07:59N 29°60' W 093°55'0 0.0
2018-May-17 07:29N 29°60' W 093°55'0 0.0
2018-May-17 06:59N 29°60' W 093°55'0 0.0
2018-May-17 06:29N 29°60' W 093°55'0 0.0
2018-May-17 05:59N 29°60' W 093°55'0 0.0
2018-May-17 05:26N 29°60' W 093°55'0 0.0
2018-May-17 04:59N 29°60' W 093°55'0 0.0
2018-May-17 04:29N 29°60' W 093°55'0 0.0
2018-May-17 03:59N 29°60' W 093°55'0 0.0
2018-May-17 03:29N 29°60' W 093°55'0 0.0
2018-May-17 02:59N 29°60' W 093°55'0 0.0
2018-May-17 02:29N 29°60' W 093°55'0 0.0
2018-May-17 01:59N 29°60' W 093°55'0 0.0
2018-May-17 01:26N 29°60' W 093°55'0 0.0
2018-May-17 00:59N 29°60' W 093°55'0 0.0
2018-May-17 00:29N 29°60' W 093°55'0 0.0
2018-May-16 23:59N 29°60' W 093°55'0 0.0
2018-May-16 23:29N 29°60' W 093°55'0 0.0
2018-May-16 22:59N 29°60' W 093°55'0 0.0
2018-May-16 22:29N 29°60' W 093°55'0 0.0
2018-May-16 21:59N 29°60' W 093°55'0 0.0
2018-May-16 21:29N 29°60' W 093°55'0 0.0
2018-May-16 20:59N 29°60' W 093°55'0 0.0
2018-May-16 20:29N 29°60' W 093°55'0 0.0
2018-May-16 19:59N 29°60' W 093°55'0 0.0
2018-May-16 19:29N 29°60' W 093°55'0 0.0
2018-May-16 18:59N 29°60' W 093°55'0 0.0
2018-May-16 18:29N 29°60' W 093°55'0 0.0
2018-May-16 17:59N 29°60' W 093°55'0 0.0
2018-May-16 17:29N 29°60' W 093°55'0 0.0
2018-May-16 16:56N 29°60' W 093°55'0 0.0
2018-May-16 16:29N 29°60' W 093°55'0 0.0
2018-May-16 15:59N 29°60' W 093°55'0 0.0
2018-May-16 15:29N 29°60' W 093°55'0 0.0
2018-May-16 14:59N 29°60' W 093°55'0 0.0
2018-May-16 14:29N 29°60' W 093°55'0 0.0
2018-May-16 13:59N 29°60' W 093°55'0 0.0
2018-May-16 13:29N 29°60' W 093°55'0 0.0
2018-May-16 12:53N 29°60' W 093°55'0 0.0
2018-May-16 12:29N 29°60' W 093°55'0 0.0
2018-May-16 11:59N 29°60' W 093°55'0 0.0
2018-May-16 11:29N 29°60' W 093°55'0 0.0
2018-May-16 10:52N 29°60' W 093°55'0 0.0
2018-May-16 10:28N 29°60' W 093°55'0 0.0
2018-May-16 09:58N 29°60' W 093°55'0 0.0
2018-May-16 09:28N 29°60' W 093°55'0 0.0
2018-May-16 08:58N 29°60' W 093°55'0 0.0
2018-May-16 08:28N 29°60' W 093°55'0 0.0
2018-May-16 07:58N 29°60' W 093°55'0 0.0
2018-May-16 07:28N 29°60' W 093°55'0 0.0
2018-May-16 06:58N 29°60' W 093°55'0 0.0
2018-May-16 06:28N 29°60' W 093°55'0 0.0
2018-May-16 05:58N 29°60' W 093°55'0 0.0
2018-May-16 05:28N 29°60' W 093°55'0 0.0
2018-May-16 04:58N 29°60' W 093°55'0 0.0
2018-May-16 04:28N 29°60' W 093°55'0 0.0
2018-May-16 03:58N 29°60' W 093°55'0 0.0
2018-May-16 03:22N 29°60' W 093°55'0 0.0
2018-May-16 02:58N 29°60' W 093°55'0 0.0
2018-May-16 02:28N 29°60' W 093°55'0 0.0
2018-May-16 01:58N 29°60' W 093°55'0 0.0
2018-May-16 01:28N 29°60' W 093°55'0 0.0
2018-May-16 00:55N 29°60' W 093°55'0 0.0
2018-May-16 00:28N 29°60' W 093°55'0 0.0
2018-May-15 23:58N 29°60' W 093°55'0 0.0
2018-May-15 23:28N 29°60' W 093°55'0 0.0
2018-May-15 22:58N 29°60' W 093°55'0 0.0
2018-May-15 22:28N 29°60' W 093°55'0 0.0
2018-May-15 21:58N 29°60' W 093°55'0 0.0
2018-May-15 21:28N 29°60' W 093°55'0 0.0
2018-May-15 20:58N 29°60' W 093°55'0 0.0
2018-May-15 20:28N 29°60' W 093°55'0 0.0
2018-May-15 19:58N 29°60' W 093°55'0 0.0
2018-May-15 19:28N 29°60' W 093°55'0 0.0
2018-May-15 18:58N 29°60' W 093°55'0 0.0
2018-May-15 18:28N 29°60' W 093°55'0 0.0
2018-May-15 17:58N 29°60' W 093°55'0 0.0
2018-May-15 17:28N 29°60' W 093°55'0 0.0
2018-May-15 16:58N 29°60' W 093°55'0 0.0
2018-May-15 16:28N 29°60' W 093°55'0 0.0
2018-May-15 15:58N 29°60' W 093°55'0 0.0
2018-May-15 15:28N 29°60' W 093°55'0 0.0
2018-May-15 14:58N 29°60' W 093°55'0 0.0
2018-May-15 14:28N 29°60' W 093°55'0 0.0
2018-May-15 13:58N 29°60' W 093°55'0 0.0
2018-May-15 13:25N 29°60' W 093°55'0 0.0
2018-May-15 12:58N 29°60' W 093°55'0 0.0
2018-May-15 12:28N 29°60' W 093°55'0 0.0
2018-May-15 11:58N 29°60' W 093°55'0 0.0
2018-May-15 11:25N 29°60' W 093°55'0 0.0
2018-May-15 10:58N 29°60' W 093°55'0 0.0
2018-May-15 10:28N 29°60' W 093°55'0 0.0
2018-May-15 09:58N 29°60' W 093°55'0 0.0
2018-May-15 09:28N 29°60' W 093°55'0 0.0
2018-May-15 08:58N 29°60' W 093°55'0 0.0
2018-May-15 08:28N 29°60' W 093°55'0 0.0
2018-May-15 07:58N 29°60' W 093°55'0 0.0
2018-May-15 07:28N 29°60' W 093°55'0 0.0
2018-May-15 06:58N 29°60' W 093°55'0 0.0
2018-May-15 06:28N 29°60' W 093°55'0 0.0
2018-May-15 05:58N 29°60' W 093°55'0 0.0
2018-May-15 05:28N 29°60' W 093°55'0 0.0
2018-May-15 04:58N 29°60' W 093°55'0 0.0
2018-May-15 04:28N 29°60' W 093°55'0 0.0
2018-May-15 03:58N 29°60' W 093°55'0 0.0
2018-May-15 03:28N 29°60' W 093°55'0 0.0
2018-May-15 02:58N 29°60' W 093°55'0 0.0
2018-May-15 02:28N 29°60' W 093°55'0 0.0
2018-May-15 01:58N 29°60' W 093°55'0 0.0
2018-May-15 01:28N 29°60' W 093°55'0 0.0
2018-May-15 00:58N 29°60' W 093°55'0 0.0
2018-May-15 00:28N 29°60' W 093°55'0 0.0
2018-May-14 23:58N 29°60' W 093°55'0 0.0
2018-May-14 23:28N 29°60' W 093°55'0 0.0
2018-May-14 22:58N 29°60' W 093°55'0 0.0
2018-May-14 22:28N 29°60' W 093°55'0 0.0
2018-May-14 21:58N 29°60' W 093°55'0 0.0
2018-May-14 21:28N 29°60' W 093°55'0 0.0
2018-May-14 20:58N 29°60' W 093°55'0 0.0
2018-May-14 20:28N 29°60' W 093°55'0 0.0
2018-May-14 19:58N 29°60' W 093°55'0 0.0
2018-May-14 19:28N 29°60' W 093°55'0 0.0
2018-May-14 18:58N 29°60' W 093°55'0 0.0
2018-May-14 18:28N 29°60' W 093°55'0 0.0
2018-May-14 17:58N 29°60' W 093°55'0 0.0
2018-May-14 17:28N 29°60' W 093°55'0 0.0
2018-May-14 16:58N 29°60' W 093°55'0 0.0
2018-May-14 16:28N 29°60' W 093°55'0 0.0
2018-May-14 15:58N 29°60' W 093°55'0 0.0
2018-May-14 15:28N 29°60' W 093°55'0 0.0
2018-May-14 14:58N 29°60' W 093°55'0 0.0
2018-May-14 14:28N 29°60' W 093°55'0 0.0
2018-May-14 13:58N 29°60' W 093°55'0 0.0
2018-May-14 13:28N 29°60' W 093°55'0 0.0
2018-May-14 12:58N 29°60' W 093°55'0 0.0
2018-May-14 12:28N 29°60' W 093°55'0 0.0
2018-May-14 11:55N 29°60' W 093°55'0 0.0
2018-May-14 11:28N 29°60' W 093°55'0 0.0
2018-May-14 10:58N 29°60' W 093°55'0 0.0
2018-May-14 10:28N 29°60' W 093°55'0 0.0
2018-May-14 09:58N 29°60' W 093°55'0 0.0
2018-May-14 09:28N 29°60' W 093°55'0 0.0
2018-May-14 08:58N 29°60' W 093°55'0 0.0
2018-May-14 08:28N 29°60' W 093°55'0 0.0
2018-May-14 07:58N 29°60' W 093°55'0 0.0
2018-May-14 07:28N 29°60' W 093°55'0 0.0
2018-May-14 06:58N 29°60' W 093°55'0 0.0
2018-May-14 06:28N 29°60' W 093°55'0 0.0
2018-May-14 05:58N 29°60' W 093°55'0 0.0
2018-May-14 05:28N 29°60' W 093°55'0 0.0
2018-May-14 04:58N 29°60' W 093°55'0 0.0
2018-May-14 04:28N 29°60' W 093°55'0 0.0
2018-May-14 03:58N 29°60' W 093°55'0 0.0
2018-May-14 03:28N 29°60' W 093°55'0 0.0
2018-May-14 02:58N 29°60' W 093°55'0 0.0
2018-May-14 02:28N 29°60' W 093°55'0 0.0
2018-May-14 01:58N 29°60' W 093°55'0 0.0
2018-May-14 01:28N 29°60' W 093°55'0 0.0
2018-May-14 00:58N 29°60' W 093°55'0 0.0
2018-May-14 00:28N 29°60' W 093°55'0 0.0
2018-May-13 23:58N 29°60' W 093°55'0 0.0
2018-May-13 23:28N 29°60' W 093°55'0 0.0
2018-May-13 22:58N 29°60' W 093°55'0 0.0
2018-May-13 22:28N 29°60' W 093°55'0 0.0
2018-May-13 21:58N 29°60' W 093°55'0 0.0
2018-May-13 21:28N 29°60' W 093°55'0 0.0
2018-May-13 20:58N 29°60' W 093°55'0 0.0
2018-May-13 20:28N 29°60' W 093°55'0 0.0
2018-May-13 19:58N 29°60' W 093°55'0 0.0
2018-May-13 19:28N 29°60' W 093°55'0 0.0
2018-May-13 18:58N 29°60' W 093°55'0 0.0
2018-May-13 18:28N 29°60' W 093°55'0 0.0
2018-May-13 17:58N 29°60' W 093°55'0 0.0
2018-May-13 17:28N 29°60' W 093°55'0 0.0
2018-May-13 16:58N 29°60' W 093°55'0 0.0
2018-May-13 16:28N 29°60' W 093°55'0 0.0
2018-May-13 15:58N 29°60' W 093°55'0 0.0
2018-May-13 15:28N 29°60' W 093°55'0 0.0
2018-May-13 14:58N 29°60' W 093°55'0 0.0
2018-May-13 14:28N 29°60' W 093°55'0 0.0
2018-May-13 13:58N 29°60' W 093°55'0 0.0
2018-May-13 13:28N 29°60' W 093°55'0 0.0
2018-May-13 12:58N 29°60' W 093°55'0 0.0
2018-May-13 12:28N 29°60' W 093°55'0 0.0
2018-May-13 11:58N 29°60' W 093°55'0 0.0
2018-May-13 11:28N 29°60' W 093°55'0 0.0
2018-May-13 10:58N 29°60' W 093°55'0 0.0
2018-May-13 10:28N 29°60' W 093°55'0 0.0
2018-May-13 09:58N 29°60' W 093°55'0 0.0
2018-May-13 09:28N 29°60' W 093°55'0 0.0
2018-May-13 08:58N 29°60' W 093°55'0 0.0
2018-May-13 08:28N 29°60' W 093°55'0 0.0
2018-May-13 07:58N 29°60' W 093°55'0 0.0
2018-May-13 07:28N 29°60' W 093°55'0 0.0
2018-May-13 06:58N 29°60' W 093°55'0 0.0
2018-May-13 06:28N 29°60' W 093°55'0 0.0
2018-May-13 05:58N 29°60' W 093°55'0 0.0
2018-May-13 05:28N 29°60' W 093°55'0 0.0
2018-May-13 04:58N 29°60' W 093°55'0 0.0
2018-May-13 04:28N 29°60' W 093°55'0 0.0
2018-May-13 03:58N 29°60' W 093°55'0 0.0
2018-May-13 03:28N 29°60' W 093°55'0 0.0
2018-May-13 02:58N 29°60' W 093°55'0 0.0
2018-May-13 02:28N 29°60' W 093°55'0 0.0
2018-May-13 01:55N 29°60' W 093°55'0 0.0
2018-May-13 01:28N 29°60' W 093°55'0 0.0
2018-May-13 00:58N 29°60' W 093°55'0 0.0
2018-May-13 00:28N 29°60' W 093°55'0 0.0
2018-May-12 23:58N 29°60' W 093°55'0 0.0
2018-May-12 23:28N 29°60' W 093°55'0 0.0
2018-May-12 22:58N 29°60' W 093°55'0 0.0
2018-May-12 22:28N 29°60' W 093°55'0 0.0
2018-May-12 21:58N 29°60' W 093°55'0 0.0
2018-May-12 21:28N 29°60' W 093°55'0 0.0
2018-May-12 20:58N 29°60' W 093°55'0 0.0
2018-May-12 20:28N 29°60' W 093°55'0 0.0
2018-May-12 19:58N 29°60' W 093°55'0 0.0
2018-May-12 19:28N 29°60' W 093°55'0 0.0
2018-May-12 18:58N 29°60' W 093°55'0 0.0
2018-May-12 18:28N 29°60' W 093°55'0 0.0
2018-May-12 17:58N 29°60' W 093°55'0 0.0
2018-May-12 17:28N 29°60' W 093°55'0 0.0
2018-May-12 16:58N 29°60' W 093°55'0 0.0
2018-May-12 16:28N 29°60' W 093°55'0 0.0
2018-May-12 15:58N 29°60' W 093°55'0 0.0
2018-May-12 15:28N 29°60' W 093°55'0 0.0
2018-May-12 14:55N 29°60' W 093°55'0 0.0
2018-May-12 14:28N 29°60' W 093°55'0 0.0
2018-May-12 13:58N 29°60' W 093°55'0 0.0
2018-May-12 13:28N 29°60' W 093°55'0 0.0
2018-May-12 12:58N 29°60' W 093°55'0 0.0
2018-May-12 12:28N 29°60' W 093°55'0 0.0
2018-May-12 11:58N 29°60' W 093°55'0 0.0
2018-May-12 11:28N 29°60' W 093°55'0 0.0
2018-May-12 10:58N 29°60' W 093°55'0 0.0
2018-May-12 10:25N 29°60' W 093°55'0 0.0
2018-May-12 09:58N 29°60' W 093°55'0 0.0
2018-May-12 09:28N 29°60' W 093°55'0 0.0
2018-May-12 08:58N 29°60' W 093°55'0 0.0
2018-May-12 08:28N 29°60' W 093°55'0 0.0
2018-May-12 07:58N 29°60' W 093°55'0 0.0
2018-May-12 07:28N 29°60' W 093°55'0 0.0
2018-May-12 06:58N 29°60' W 093°55'0 0.0
2018-May-12 06:28N 29°60' W 093°55'0 0.0
2018-May-12 05:58N 29°60' W 093°55'0 0.0
2018-May-12 05:28N 29°60' W 093°55'0 0.0
2018-May-12 04:58N 29°60' W 093°55'0 0.0
2018-May-12 04:28N 29°60' W 093°55'0 0.0
2018-May-12 03:58N 29°60' W 093°55'0 0.0
2018-May-12 03:28N 29°60' W 093°55'0 0.0
2018-May-12 02:58N 29°60' W 093°55'0 0.0
2018-May-12 02:28N 29°60' W 093°55'0 0.0
2018-May-12 01:58N 29°60' W 093°55'0 0.0
2018-May-12 01:28N 29°60' W 093°55'0 0.0
2018-May-12 00:58N 29°60' W 093°55'0 0.0
2018-May-12 00:28N 29°60' W 093°55'0 0.0
2018-May-11 23:58N 29°60' W 093°55'0 0.0
2018-May-11 23:28N 29°60' W 093°55'0 0.0
2018-May-11 22:58N 29°60' W 093°55'0 0.0
2018-May-11 22:28N 29°60' W 093°55'0 0.0
2018-May-11 21:58N 29°60' W 093°55'0 0.0
2018-May-11 21:28N 29°60' W 093°55'0 0.0
2018-May-11 20:58N 29°60' W 093°55'0 0.0
2018-May-11 20:28N 29°60' W 093°55'0 0.0
2018-May-11 19:58N 29°60' W 093°55'0 0.0
2018-May-11 19:28N 29°60' W 093°55'0 0.0
2018-May-11 18:58N 29°60' W 093°55'0 0.0
2018-May-11 18:28N 29°60' W 093°55'0 0.0
2018-May-11 17:58N 29°60' W 093°55'0 0.0
2018-May-11 17:28N 29°60' W 093°55'0 0.0
2018-May-11 16:58N 29°60' W 093°55'0 0.0
2018-May-11 16:28N 29°60' W 093°55'0 0.0
2018-May-11 15:58N 29°60' W 093°55'0 0.0
2018-May-11 15:28N 29°60' W 093°55'0 0.0
2018-May-11 14:58N 29°60' W 093°55'0 0.0
2018-May-11 14:28N 29°60' W 093°55'0 0.0
2018-May-11 13:58N 29°60' W 093°55'0 0.0
2018-May-11 13:28N 29°60' W 093°55'0 0.0
2018-May-11 12:58N 29°60' W 093°55'0 0.0
2018-May-11 12:28N 29°60' W 093°55'0 0.0
2018-May-11 11:58N 29°60' W 093°55'0 0.0
2018-May-11 11:28N 29°60' W 093°55'0 0.0
2018-May-11 10:58N 29°60' W 093°55'0 0.0
2018-May-11 10:28N 29°60' W 093°55'0 0.0
2018-May-11 09:58N 29°60' W 093°55'0 0.0
2018-May-11 09:28N 29°60' W 093°55'0 0.0
2018-May-11 08:58N 29°60' W 093°55'0 0.0
2018-May-11 08:28N 29°60' W 093°55'0 0.0
2018-May-11 07:58N 29°60' W 093°55'0 0.0
2018-May-11 07:28N 29°60' W 093°55'0 0.0
2018-May-11 06:58N 29°60' W 093°55'0 0.0
2018-May-11 06:28N 29°60' W 093°55'0 0.0
2018-May-11 05:55N 29°60' W 093°55'0 0.0
2018-May-11 05:28N 29°60' W 093°55'0 0.0
2018-May-11 04:58N 29°60' W 093°55'0 0.0
2018-May-11 04:28N 29°60' W 093°55'0 0.0
2018-May-11 03:58N 29°60' W 093°55'0 0.0
2018-May-11 03:28N 29°60' W 093°55'0 0.0
2018-May-11 02:58N 29°60' W 093°55'0 0.0
2018-May-11 02:28N 29°60' W 093°55'0 0.0
2018-May-11 01:58N 29°60' W 093°55'0 0.0
2018-May-11 01:28N 29°60' W 093°55'0 0.0
2018-May-11 00:58N 29°60' W 093°55'0 0.0
2018-May-11 00:28N 29°60' W 093°55'0 0.0
2018-May-10 23:58N 29°60' W 093°55'0 0.0
2018-May-10 23:28N 29°60' W 093°55'0 0.0
2018-May-10 22:58N 29°60' W 093°55'0 0.0
2018-May-10 22:28N 29°60' W 093°55'0 0.0
2018-May-10 21:55N 29°60' W 093°55'0 0.0
2018-May-10 21:28N 29°60' W 093°55'0 0.0
2018-May-10 20:58N 29°60' W 093°55'0 0.0
2018-May-10 20:25N 29°60' W 093°55'0 0.0
2018-May-10 19:55N 29°60' W 093°55'0 0.0
2018-May-10 19:28N 29°60' W 093°55'0 0.0
2018-May-10 18:58N 29°60' W 093°55'0 0.0
2018-May-10 18:28N 29°60' W 093°55'0 0.0
2018-May-10 17:58N 29°60' W 093°55'0 0.0
2018-May-10 17:28N 29°60' W 093°55'0 0.0
2018-May-10 16:58N 29°60' W 093°55'0 0.0
2018-May-10 16:22N 29°60' W 093°55'0 0.9
2018-May-10 16:00N 29°59' W 093°54'3 5.4
2018-May-10 15:31N 29°58' W 093°52'  
Track history (hours):
 
Tides and Currents Weather Stations Pressure Air Temp Water Temp Dewpoint Dewpoint Depression Visibility Wind Speed Wind Dir Waves Ship Positions

Lucy Hannah

Owner: D&S Marine Service,LLC., Houma, LA. More information available from US FCC via Universal Licensing System and Coast Guard Vessel Documentation Center.

Last reported at 2018-May-20 15:30 UTC. Time now 2018-May-20 15:39 UTC.
Position N 29°60' W 093°55'.

Length 19 m; draft 3 m.

Type: . MMSI: 367075110.

Date/timePositionNaut miles runAvg speedWind from/ knotsBaromVisibWave heightAir tempDewpointWater temp
2018-May-20 15:30N 29°60' W 093°55'0 0.0
2018-May-20 15:00N 29°60' W 093°55'0 0.0
2018-May-20 14:30N 29°60' W 093°55'0 0.0
2018-May-20 14:00N 29°60' W 093°55'0 0.0
2018-May-20 13:30N 29°60' W 093°55'0 0.0
2018-May-20 13:00N 29°60' W 093°55'0 0.0
2018-May-20 12:30N 29°60' W 093°55'0 0.0
2018-May-20 12:00N 29°60' W 093°55'0 0.0
2018-May-20 11:30N 29°60' W 093°55'0 0.0
2018-May-20 11:00N 29°60' W 093°55'0 0.0
2018-May-20 10:30N 29°60' W 093°55'0 0.0
2018-May-20 10:00N 29°60' W 093°55'0 0.0
2018-May-20 09:30N 29°60' W 093°55'0 0.0
2018-May-20 09:00N 29°60' W 093°55'0 0.0
2018-May-20 08:30N 29°60' W 093°55'0 0.0
2018-May-20 08:00N 29°60' W 093°55'0 0.0
2018-May-20 07:30N 29°60' W 093°55'0 0.0
2018-May-20 07:00N 29°60' W 093°55'0 0.0
2018-May-20 06:30N 29°60' W 093°55'0 0.0
2018-May-20 06:00N 29°60' W 093°55'0 0.0
2018-May-20 05:30N 29°60' W 093°55'0 0.0
2018-May-20 05:00N 29°60' W 093°55'0 0.0
2018-May-20 04:30N 29°60' W 093°55'0 0.0
2018-May-20 04:00N 29°60' W 093°55'0 0.0
2018-May-20 03:30N 29°60' W 093°55'0 0.0
2018-May-20 03:00N 29°60' W 093°55'0 0.0
2018-May-20 02:30N 29°60' W 093°55'0 0.0
2018-May-20 02:00N 29°60' W 093°55'0 0.0
2018-May-20 01:28N 29°60' W 093°55'0 0.0
2018-May-20 00:58N 29°60' W 093°55'0 0.0
2018-May-20 00:28N 29°60' W 093°55'0 0.0
2018-May-19 23:58N 29°60' W 093°55'0 0.0
2018-May-19 23:28N 29°60' W 093°55'0 0.0
2018-May-19 22:58N 29°60' W 093°55'0 0.0
2018-May-19 22:28N 29°60' W 093°55'0 0.0
2018-May-19 21:58N 29°60' W 093°55'0 0.0
2018-May-19 21:28N 29°60' W 093°55'0 0.0
2018-May-19 20:58N 29°60' W 093°55'0 0.0
2018-May-19 20:28N 29°60' W 093°55'0 0.0
2018-May-19 19:58N 29°60' W 093°55'0 0.0
2018-May-19 19:28N 29°60' W 093°55'0 0.0
2018-May-19 18:58N 29°60' W 093°55'0 0.0
2018-May-19 18:28N 29°60' W 093°55'0 0.0
2018-May-19 17:58N 29°60' W 093°55'0 0.0
2018-May-19 17:28N 29°60' W 093°55'0 0.0
2018-May-19 16:58N 29°60' W 093°55'0 0.0
2018-May-19 16:28N 29°60' W 093°55'0 0.0
2018-May-19 15:58N 29°60' W 093°55'0 0.0
2018-May-19 15:28N 29°60' W 093°55'0 0.0
2018-May-19 14:58N 29°60' W 093°55'0 0.0
2018-May-19 14:28N 29°60' W 093°55'0 0.0
2018-May-19 13:58N 29°60' W 093°55'0 0.0
2018-May-19 13:28N 29°60' W 093°55'0 0.0
2018-May-19 12:58N 29°60' W 093°55'0 0.0
2018-May-19 12:28N 29°60' W 093°55'0 0.0
2018-May-19 11:58N 29°60' W 093°55'0 0.0
2018-May-19 11:28N 29°60' W 093°55'0 0.1
2018-May-19 11:00N 29°60' W 093°55'3 5.4
2018-May-19 10:30N 29°59' W 093°52'1 1.8
2018-May-19 10:00N 29°58' W 093°51'2 3.1
2018-May-19 09:30N 29°59' W 093°49'4 7.2
2018-May-19 09:00N 30°01' W 093°46'3 5.5
2018-May-19 08:30N 30°03' W 093°44'0 0.3
2018-May-19 08:00N 30°03' W 093°44'0 0.5
2018-May-19 07:30N 30°03' W 093°44'2 3.2
2018-May-19 07:00N 30°02' W 093°44'3 5.2
2018-May-19 06:30N 29°60' W 093°46'3 5.2
2018-May-19 06:00N 29°59' W 093°49'3 5.6
2018-May-19 05:30N 29°59' W 093°53'2 3.7
2018-May-19 04:58N 29°60' W 093°55'0 0.0
2018-May-19 04:28N 29°60' W 093°55'0 0.0
2018-May-19 03:58N 29°60' W 093°55'0 0.0
2018-May-19 03:28N 29°60' W 093°55'0 0.0
2018-May-19 02:58N 29°60' W 093°55'0 0.0
2018-May-19 02:28N 29°60' W 093°55'0 0.0
2018-May-19 01:58N 29°60' W 093°55'0 0.0
2018-May-19 01:28N 29°60' W 093°55'0 0.0
2018-May-19 00:58N 29°60' W 093°55'0 0.0
2018-May-19 00:28N 29°60' W 093°55'0 0.0
2018-May-18 23:58N 29°60' W 093°55'0 0.0
2018-May-18 23:28N 29°60' W 093°55'0 0.0
2018-May-18 22:58N 29°60' W 093°55'0 0.0
2018-May-18 22:28N 29°60' W 093°55'0 0.0
2018-May-18 21:58N 29°60' W 093°55'0 0.0
2018-May-18 21:28N 29°60' W 093°55'0 0.0
2018-May-18 20:58N 29°60' W 093°55'0 0.0
2018-May-18 20:28N 29°60' W 093°55'0 0.0
2018-May-18 19:58N 29°60' W 093°55'0 0.0
2018-May-18 19:28N 29°60' W 093°55'0 0.0
2018-May-18 18:58N 29°60' W 093°55'0 0.0
2018-May-18 18:28N 29°60' W 093°55'0 0.0
2018-May-18 17:58N 29°60' W 093°55'0 0.0
2018-May-18 17:28N 29°60' W 093°55'0 0.0
2018-May-18 16:58N 29°60' W 093°55'0 0.0
2018-May-18 16:28N 29°60' W 093°55'0 0.0
2018-May-18 15:58N 29°60' W 093°55'0 0.0
2018-May-18 15:25N 29°60' W 093°55'0 0.0
2018-May-18 14:58N 29°60' W 093°55'0 0.0
2018-May-18 14:28N 29°60' W 093°55'0 0.0
2018-May-18 13:58N 29°60' W 093°55'0 0.0
2018-May-18 13:28N 29°60' W 093°55'0 0.0
2018-May-18 12:58N 29°60' W 093°55'0 0.0
2018-May-18 12:28N 29°60' W 093°55'0 0.0
2018-May-18 11:58N 29°60' W 093°55'0 0.0
2018-May-18 11:28N 29°60' W 093°55'0 0.0
2018-May-18 10:58N 29°60' W 093°55'0 0.0
2018-May-18 10:28N 29°60' W 093°55'0 0.0
2018-May-18 09:58N 29°60' W 093°55'0 0.0
2018-May-18 09:28N 29°60' W 093°55'0 0.0
2018-May-18 08:58N 29°60' W 093°55'0 0.0
2018-May-18 08:28N 29°60' W 093°55'0 0.0
2018-May-18 07:58N 29°60' W 093°55'0 0.0
2018-May-18 07:28N 29°60' W 093°55'0 0.0
2018-May-18 06:58N 29°60' W 093°55'0 0.0
2018-May-18 06:28N 29°60' W 093°55'0 0.0
2018-May-18 05:58N 29°60' W 093°55'0 0.0
2018-May-18 05:28N 29°60' W 093°55'0 0.0
2018-May-18 04:58N 29°60' W 093°55'0 0.0
2018-May-18 04:28N 29°60' W 093°55'0 0.0
2018-May-18 03:58N 29°60' W 093°55'0 0.0
2018-May-18 03:28N 29°60' W 093°55'0 0.0
2018-May-18 02:58N 29°60' W 093°55'0 0.0
2018-May-18 02:28N 29°60' W 093°55'0 0.0
2018-May-18 01:58N 29°60' W 093°55'0 0.0
2018-May-18 01:28N 29°60' W 093°55'0 0.0
2018-May-18 00:58N 29°60' W 093°55'0 0.0
2018-May-18 00:28N 29°60' W 093°55'0 0.0
2018-May-17 23:58N 29°60' W 093°55'0 0.0
2018-May-17 23:28N 29°60' W 093°55'0 0.0
2018-May-17 22:58N 29°60' W 093°55'0 0.0
2018-May-17 22:28N 29°60' W 093°55'0 0.0
2018-May-17 21:58N 29°60' W 093°55'0 0.0
2018-May-17 21:28N 29°60' W 093°55'0 0.0
2018-May-17 20:58N 29°60' W 093°55'0 0.0
2018-May-17 20:28N 29°60' W 093°55'0 0.0
2018-May-17 19:58N 29°60' W 093°55'0 0.0
2018-May-17 19:28N 29°60' W 093°55'0 0.0
2018-May-17 18:58N 29°60' W 093°55'0 0.0
2018-May-17 18:28N 29°60' W 093°55'0 0.6
2018-May-17 18:00N 29°59' W 093°54'3 5.6
2018-May-17 17:30N 29°58' W 093°51'1 1.0
2018-May-17 17:00N 29°58' W 093°51'0 0.0
2018-May-17 16:30N 29°58' W 093°51'1 1.1
2018-May-17 16:00N 29°58' W 093°51'3 6.0
2018-May-17 15:30N 29°60' W 093°55'0 0.0
2018-May-17 14:59N 29°60' W 093°55'0 0.0
2018-May-17 14:30N 29°60' W 093°55'0 0.0
2018-May-17 14:00N 29°60' W 093°55'0 0.0
2018-May-17 13:29N 29°60' W 093°55'0 0.0
2018-May-17 12:59N 29°60' W 093°55'0 0.0
2018-May-17 12:30N 29°60' W 093°55'0 0.0
2018-May-17 11:59N 29°60' W 093°55'0 0.0
2018-May-17 11:29N 29°60' W 093°55'0 0.0
2018-May-17 10:59N 29°60' W 093°55'0 0.0
2018-May-17 10:29N 29°60' W 093°55'0 0.0
2018-May-17 09:59N 29°60' W 093°55'0 0.0
2018-May-17 09:30N 29°60' W 093°55'0 0.0
2018-May-17 08:59N 29°60' W 093°55'0 0.0
2018-May-17 08:29N 29°60' W 093°55'0 0.0
2018-May-17 07:59N 29°60' W 093°55'0 0.0
2018-May-17 07:29N 29°60' W 093°55'0 0.0
2018-May-17 06:59N 29°60' W 093°55'0 0.0
2018-May-17 06:29N 29°60' W 093°55'0 0.0
2018-May-17 05:59N 29°60' W 093°55'0 0.0
2018-May-17 05:26N 29°60' W 093°55'0 0.0
2018-May-17 04:59N 29°60' W 093°55'0 0.0
2018-May-17 04:29N 29°60' W 093°55'0 0.0
2018-May-17 03:59N 29°60' W 093°55'0 0.0
2018-May-17 03:29N 29°60' W 093°55'0 0.0
2018-May-17 02:59N 29°60' W 093°55'0 0.0
2018-May-17 02:29N 29°60' W 093°55'0 0.0
2018-May-17 01:59N 29°60' W 093°55'0 0.0
2018-May-17 01:26N 29°60' W 093°55'0 0.0
2018-May-17 00:59N 29°60' W 093°55'0 0.0
2018-May-17 00:29N 29°60' W 093°55'0 0.0
2018-May-16 23:59N 29°60' W 093°55'0 0.0
2018-May-16 23:29N 29°60' W 093°55'0 0.0
2018-May-16 22:59N 29°60' W 093°55'0 0.0
2018-May-16 22:29N 29°60' W 093°55'0 0.0
2018-May-16 21:59N 29°60' W 093°55'0 0.0
2018-May-16 21:29N 29°60' W 093°55'0 0.0
2018-May-16 20:59N 29°60' W 093°55'0 0.0
2018-May-16 20:29N 29°60' W 093°55'0 0.0
2018-May-16 19:59N 29°60' W 093°55'0 0.0
2018-May-16 19:29N 29°60' W 093°55'0 0.0
2018-May-16 18:59N 29°60' W 093°55'0 0.0
2018-May-16 18:29N 29°60' W 093°55'0 0.0
2018-May-16 17:59N 29°60' W 093°55'0 0.0
2018-May-16 17:29N 29°60' W 093°55'0 0.0
2018-May-16 16:56N 29°60' W 093°55'0 0.0
2018-May-16 16:29N 29°60' W 093°55'0 0.0
2018-May-16 15:59N 29°60' W 093°55'0 0.0
2018-May-16 15:29N 29°60' W 093°55'0 0.0
2018-May-16 14:59N 29°60' W 093°55'0 0.0
2018-May-16 14:29N 29°60' W 093°55'0 0.0
2018-May-16 13:59N 29°60' W 093°55'0 0.0
2018-May-16 13:29N 29°60' W 093°55'0 0.0
2018-May-16 12:53N 29°60' W 093°55'0 0.0
2018-May-16 12:29N 29°60' W 093°55'0 0.0
2018-May-16 11:59N 29°60' W 093°55'0 0.0
2018-May-16 11:29N 29°60' W 093°55'0 0.0
2018-May-16 10:52N 29°60' W 093°55'0 0.0
2018-May-16 10:28N 29°60' W 093°55'0 0.0
2018-May-16 09:58N 29°60' W 093°55'0 0.0
2018-May-16 09:28N 29°60' W 093°55'0 0.0
2018-May-16 08:58N 29°60' W 093°55'0 0.0
2018-May-16 08:28N 29°60' W 093°55'0 0.0
2018-May-16 07:58N 29°60' W 093°55'0 0.0
2018-May-16 07:28N 29°60' W 093°55'0 0.0
2018-May-16 06:58N 29°60' W 093°55'0 0.0
2018-May-16 06:28N 29°60' W 093°55'0 0.0
2018-May-16 05:58N 29°60' W 093°55'0 0.0
2018-May-16 05:28N 29°60' W 093°55'0 0.0
2018-May-16 04:58N 29°60' W 093°55'0 0.0
2018-May-16 04:28N 29°60' W 093°55'0 0.0
2018-May-16 03:58N 29°60' W 093°55'0 0.0
2018-May-16 03:22N 29°60' W 093°55'0 0.0
2018-May-16 02:58N 29°60' W 093°55'0 0.0
2018-May-16 02:28N 29°60' W 093°55'0 0.0
2018-May-16 01:58N 29°60' W 093°55'0 0.0
2018-May-16 01:28N 29°60' W 093°55'0 0.0
2018-May-16 00:55N 29°60' W 093°55'0 0.0
2018-May-16 00:28N 29°60' W 093°55'0 0.0
2018-May-15 23:58N 29°60' W 093°55'0 0.0
2018-May-15 23:28N 29°60' W 093°55'0 0.0
2018-May-15 22:58N 29°60' W 093°55'0 0.0
2018-May-15 22:28N 29°60' W 093°55'0 0.0
2018-May-15 21:58N 29°60' W 093°55'0 0.0
2018-May-15 21:28N 29°60' W 093°55'0 0.0
2018-May-15 20:58N 29°60' W 093°55'0 0.0
2018-May-15 20:28N 29°60' W 093°55'0 0.0
2018-May-15 19:58N 29°60' W 093°55'0 0.0
2018-May-15 19:28N 29°60' W 093°55'0 0.0
2018-May-15 18:58N 29°60' W 093°55'0 0.0
2018-May-15 18:28N 29°60' W 093°55'0 0.0
2018-May-15 17:58N 29°60' W 093°55'0 0.0
2018-May-15 17:28N 29°60' W 093°55'0 0.0
2018-May-15 16:58N 29°60' W 093°55'0 0.0
2018-May-15 16:28N 29°60' W 093°55'0 0.0
2018-May-15 15:58N 29°60' W 093°55'0 0.0
2018-May-15 15:28N 29°60' W 093°55'0 0.0
2018-May-15 14:58N 29°60' W 093°55'0 0.0
2018-May-15 14:28N 29°60' W 093°55'0 0.0
2018-May-15 13:58N 29°60' W 093°55'0 0.0
2018-May-15 13:25N 29°60' W 093°55'0 0.0
2018-May-15 12:58N 29°60' W 093°55'0 0.0
2018-May-15 12:28N 29°60' W 093°55'0 0.0
2018-May-15 11:58N 29°60' W 093°55'0 0.0
2018-May-15 11:25N 29°60' W 093°55'0 0.0
2018-May-15 10:58N 29°60' W 093°55'0 0.0
2018-May-15 10:28N 29°60' W 093°55'0 0.0
2018-May-15 09:58N 29°60' W 093°55'0 0.0
2018-May-15 09:28N 29°60' W 093°55'0 0.0
2018-May-15 08:58N 29°60' W 093°55'0 0.0
2018-May-15 08:28N 29°60' W 093°55'0 0.0
2018-May-15 07:58N 29°60' W 093°55'0 0.0
2018-May-15 07:28N 29°60' W 093°55'0 0.0
2018-May-15 06:58N 29°60' W 093°55'0 0.0
2018-May-15 06:28N 29°60' W 093°55'0 0.0
2018-May-15 05:58N 29°60' W 093°55'0 0.0
2018-May-15 05:28N 29°60' W 093°55'0 0.0
2018-May-15 04:58N 29°60' W 093°55'0 0.0
2018-May-15 04:28N 29°60' W 093°55'0 0.0
2018-May-15 03:58N 29°60' W 093°55'0 0.0
2018-May-15 03:28N 29°60' W 093°55'0 0.0
2018-May-15 02:58N 29°60' W 093°55'0 0.0
2018-May-15 02:28N 29°60' W 093°55'0 0.0
2018-May-15 01:58N 29°60' W 093°55'0 0.0
2018-May-15 01:28N 29°60' W 093°55'0 0.0
2018-May-15 00:58N 29°60' W 093°55'0 0.0
2018-May-15 00:28N 29°60' W 093°55'0 0.0
2018-May-14 23:58N 29°60' W 093°55'0 0.0
2018-May-14 23:28N 29°60' W 093°55'0 0.0
2018-May-14 22:58N 29°60' W 093°55'0 0.0
2018-May-14 22:28N 29°60' W 093°55'0 0.0
2018-May-14 21:58N 29°60' W 093°55'0 0.0
2018-May-14 21:28N 29°60' W 093°55'0 0.0
2018-May-14 20:58N 29°60' W 093°55'0 0.0
2018-May-14 20:28N 29°60' W 093°55'0 0.0
2018-May-14 19:58N 29°60' W 093°55'0 0.0
2018-May-14 19:28N 29°60' W 093°55'0 0.0
2018-May-14 18:58N 29°60' W 093°55'0 0.0
2018-May-14 18:28N 29°60' W 093°55'0 0.0
2018-May-14 17:58N 29°60' W 093°55'0 0.0
2018-May-14 17:28N 29°60' W 093°55'0 0.0
2018-May-14 16:58N 29°60' W 093°55'0 0.0
2018-May-14 16:28N 29°60' W 093°55'0 0.0
2018-May-14 15:58N 29°60' W 093°55'0 0.0
2018-May-14 15:28N 29°60' W 093°55'0 0.0
2018-May-14 14:58N 29°60' W 093°55'0 0.0
2018-May-14 14:28N 29°60' W 093°55'0 0.0
2018-May-14 13:58N 29°60' W 093°55'0 0.0
2018-May-14 13:28N 29°60' W 093°55'0 0.0
2018-May-14 12:58N 29°60' W 093°55'0 0.0
2018-May-14 12:28N 29°60' W 093°55'0 0.0
2018-May-14 11:55N 29°60' W 093°55'0 0.0
2018-May-14 11:28N 29°60' W 093°55'0 0.0
2018-May-14 10:58N 29°60' W 093°55'0 0.0
2018-May-14 10:28N 29°60' W 093°55'0 0.0
2018-May-14 09:58N 29°60' W 093°55'0 0.0
2018-May-14 09:28N 29°60' W 093°55'0 0.0
2018-May-14 08:58N 29°60' W 093°55'0 0.0
2018-May-14 08:28N 29°60' W 093°55'0 0.0
2018-May-14 07:58N 29°60' W 093°55'0 0.0
2018-May-14 07:28N 29°60' W 093°55'0 0.0
2018-May-14 06:58N 29°60' W 093°55'0 0.0
2018-May-14 06:28N 29°60' W 093°55'0 0.0
2018-May-14 05:58N 29°60' W 093°55'0 0.0
2018-May-14 05:28N 29°60' W 093°55'0 0.0
2018-May-14 04:58N 29°60' W 093°55'0 0.0
2018-May-14 04:28N 29°60' W 093°55'0 0.0
2018-May-14 03:58N 29°60' W 093°55'0 0.0
2018-May-14 03:28N 29°60' W 093°55'0 0.0
2018-May-14 02:58N 29°60' W 093°55'0 0.0
2018-May-14 02:28N 29°60' W 093°55'0 0.0
2018-May-14 01:58N 29°60' W 093°55'0 0.0
2018-May-14 01:28N 29°60' W 093°55'0 0.0
2018-May-14 00:58N 29°60' W 093°55'0 0.0
2018-May-14 00:28N 29°60' W 093°55'0 0.0
2018-May-13 23:58N 29°60' W 093°55'0 0.0
2018-May-13 23:28N 29°60' W 093°55'0 0.0
2018-May-13 22:58N 29°60' W 093°55'0 0.0
2018-May-13 22:28N 29°60' W 093°55'0 0.0
2018-May-13 21:58N 29°60' W 093°55'0 0.0
2018-May-13 21:28N 29°60' W 093°55'0 0.0
2018-May-13 20:58N 29°60' W 093°55'0 0.0
2018-May-13 20:28N 29°60' W 093°55'0 0.0
2018-May-13 19:58N 29°60' W 093°55'0 0.0
2018-May-13 19:28N 29°60' W 093°55'0 0.0
2018-May-13 18:58N 29°60' W 093°55'0 0.0
2018-May-13 18:28N 29°60' W 093°55'0 0.0
2018-May-13 17:58N 29°60' W 093°55'0 0.0
2018-May-13 17:28N 29°60' W 093°55'0 0.0
2018-May-13 16:58N 29°60' W 093°55'0 0.0
2018-May-13 16:28N 29°60' W 093°55'0 0.0
2018-May-13 15:58N 29°60' W 093°55'0 0.0
2018-May-13 15:28N 29°60' W 093°55'0 0.0
2018-May-13 14:58N 29°60' W 093°55'0 0.0
2018-May-13 14:28N 29°60' W 093°55'0 0.0
2018-May-13 13:58N 29°60' W 093°55'0 0.0
2018-May-13 13:28N 29°60' W 093°55'0 0.0
2018-May-13 12:58N 29°60' W 093°55'0 0.0
2018-May-13 12:28N 29°60' W 093°55'0 0.0
2018-May-13 11:58N 29°60' W 093°55'0 0.0
2018-May-13 11:28N 29°60' W 093°55'0 0.0
2018-May-13 10:58N 29°60' W 093°55'0 0.0
2018-May-13 10:28N 29°60' W 093°55'0 0.0
2018-May-13 09:58N 29°60' W 093°55'0 0.0
2018-May-13 09:28N 29°60' W 093°55'0 0.0
2018-May-13 08:58N 29°60' W 093°55'0 0.0
2018-May-13 08:28N 29°60' W 093°55'0 0.0
2018-May-13 07:58N 29°60' W 093°55'0 0.0
2018-May-13 07:28N 29°60' W 093°55'0 0.0
2018-May-13 06:58N 29°60' W 093°55'0 0.0
2018-May-13 06:28N 29°60' W 093°55'0 0.0
2018-May-13 05:58N 29°60' W 093°55'0 0.0
2018-May-13 05:28N 29°60' W 093°55'0 0.0
2018-May-13 04:58N 29°60' W 093°55'0 0.0
2018-May-13 04:28N 29°60' W 093°55'0 0.0
2018-May-13 03:58N 29°60' W 093°55'0 0.0
2018-May-13 03:28N 29°60' W 093°55'0 0.0
2018-May-13 02:58N 29°60' W 093°55'0 0.0
2018-May-13 02:28N 29°60' W 093°55'0 0.0
2018-May-13 01:55N 29°60' W 093°55'0 0.0
2018-May-13 01:28N 29°60' W 093°55'0 0.0
2018-May-13 00:58N 29°60' W 093°55'0 0.0
2018-May-13 00:28N 29°60' W 093°55'0 0.0
2018-May-12 23:58N 29°60' W 093°55'0 0.0
2018-May-12 23:28N 29°60' W 093°55'0 0.0
2018-May-12 22:58N 29°60' W 093°55'0 0.0
2018-May-12 22:28N 29°60' W 093°55'0 0.0
2018-May-12 21:58N 29°60' W 093°55'0 0.0
2018-May-12 21:28N 29°60' W 093°55'0 0.0
2018-May-12 20:58N 29°60' W 093°55'0 0.0
2018-May-12 20:28N 29°60' W 093°55'0 0.0
2018-May-12 19:58N 29°60' W 093°55'0 0.0
2018-May-12 19:28N 29°60' W 093°55'0 0.0
2018-May-12 18:58N 29°60' W 093°55'0 0.0
2018-May-12 18:28N 29°60' W 093°55'0 0.0
2018-May-12 17:58N 29°60' W 093°55'0 0.0
2018-May-12 17:28N 29°60' W 093°55'0 0.0
2018-May-12 16:58N 29°60' W 093°55'0 0.0
2018-May-12 16:28N 29°60' W 093°55'0 0.0
2018-May-12 15:58N 29°60' W 093°55'0 0.0
2018-May-12 15:28N 29°60' W 093°55'0 0.0
2018-May-12 14:55N 29°60' W 093°55'0 0.0
2018-May-12 14:28N 29°60' W 093°55'0 0.0
2018-May-12 13:58N 29°60' W 093°55'0 0.0
2018-May-12 13:28N 29°60' W 093°55'0 0.0
2018-May-12 12:58N 29°60' W 093°55'0 0.0
2018-May-12 12:28N 29°60' W 093°55'0 0.0
2018-May-12 11:58N 29°60' W 093°55'0 0.0
2018-May-12 11:28N 29°60' W 093°55'0 0.0
2018-May-12 10:58N 29°60' W 093°55'0 0.0
2018-May-12 10:25N 29°60' W 093°55'0 0.0
2018-May-12 09:58N 29°60' W 093°55'0 0.0
2018-May-12 09:28N 29°60' W 093°55'0 0.0
2018-May-12 08:58N 29°60' W 093°55'0 0.0
2018-May-12 08:28N 29°60' W 093°55'0 0.0
2018-May-12 07:58N 29°60' W 093°55'0 0.0
2018-May-12 07:28N 29°60' W 093°55'0 0.0
2018-May-12 06:58N 29°60' W 093°55'0 0.0
2018-May-12 06:28N 29°60' W 093°55'0 0.0
2018-May-12 05:58N 29°60' W 093°55'0 0.0
2018-May-12 05:28N 29°60' W 093°55'0 0.0
2018-May-12 04:58N 29°60' W 093°55'0 0.0
2018-May-12 04:28N 29°60' W 093°55'0 0.0
2018-May-12 03:58N 29°60' W 093°55'0 0.0
2018-May-12 03:28N 29°60' W 093°55'0 0.0
2018-May-12 02:58N 29°60' W 093°55'0 0.0
2018-May-12 02:28N 29°60' W 093°55'0 0.0
2018-May-12 01:58N 29°60' W 093°55'0 0.0
2018-May-12 01:28N 29°60' W 093°55'0 0.0
2018-May-12 00:58N 29°60' W 093°55'0 0.0
2018-May-12 00:28N 29°60' W 093°55'0 0.0
2018-May-11 23:58N 29°60' W 093°55'0 0.0
2018-May-11 23:28N 29°60' W 093°55'0 0.0
2018-May-11 22:58N 29°60' W 093°55'0 0.0
2018-May-11 22:28N 29°60' W 093°55'0 0.0
2018-May-11 21:58N 29°60' W 093°55'0 0.0
2018-May-11 21:28N 29°60' W 093°55'0 0.0
2018-May-11 20:58N 29°60' W 093°55'0 0.0
2018-May-11 20:28N 29°60' W 093°55'0 0.0
2018-May-11 19:58N 29°60' W 093°55'0 0.0
2018-May-11 19:28N 29°60' W 093°55'0 0.0
2018-May-11 18:58N 29°60' W 093°55'0 0.0
2018-May-11 18:28N 29°60' W 093°55'0 0.0
2018-May-11 17:58N 29°60' W 093°55'0 0.0
2018-May-11 17:28N 29°60' W 093°55'0 0.0
2018-May-11 16:58N 29°60' W 093°55'0 0.0
2018-May-11 16:28N 29°60' W 093°55'0 0.0
2018-May-11 15:58N 29°60' W 093°55'0 0.0
2018-May-11 15:28N 29°60' W 093°55'0 0.0
2018-May-11 14:58N 29°60' W 093°55'0 0.0
2018-May-11 14:28N 29°60' W 093°55'0 0.0
2018-May-11 13:58N 29°60' W 093°55'0 0.0
2018-May-11 13:28N 29°60' W 093°55'0 0.0
2018-May-11 12:58N 29°60' W 093°55'0 0.0
2018-May-11 12:28N 29°60' W 093°55'0 0.0
2018-May-11 11:58N 29°60' W 093°55'0 0.0
2018-May-11 11:28N 29°60' W 093°55'0 0.0
2018-May-11 10:58N 29°60' W 093°55'0 0.0
2018-May-11 10:28N 29°60' W 093°55'0 0.0
2018-May-11 09:58N 29°60' W 093°55'0 0.0
2018-May-11 09:28N 29°60' W 093°55'0 0.0
2018-May-11 08:58N 29°60' W 093°55'0 0.0
2018-May-11 08:28N 29°60' W 093°55'0 0.0
2018-May-11 07:58N 29°60' W 093°55'0 0.0
2018-May-11 07:28N 29°60' W 093°55'0 0.0
2018-May-11 06:58N 29°60' W 093°55'0 0.0
2018-May-11 06:28N 29°60' W 093°55'0 0.0
2018-May-11 05:55N 29°60' W 093°55'0 0.0
2018-May-11 05:28N 29°60' W 093°55'0 0.0
2018-May-11 04:58N 29°60' W 093°55'0 0.0
2018-May-11 04:28N 29°60' W 093°55'0 0.0
2018-May-11 03:58N 29°60' W 093°55'0 0.0
2018-May-11 03:28N 29°60' W 093°55'0 0.0
2018-May-11 02:58N 29°60' W 093°55'0 0.0
2018-May-11 02:28N 29°60' W 093°55'0 0.0
2018-May-11 01:58N 29°60' W 093°55'0 0.0
2018-May-11 01:28N 29°60' W 093°55'0 0.0
2018-May-11 00:58N 29°60' W 093°55'0 0.0
2018-May-11 00:28N 29°60' W 093°55'0 0.0
2018-May-10 23:58N 29°60' W 093°55'0 0.0
2018-May-10 23:28N 29°60' W 093°55'0 0.0
2018-May-10 22:58N 29°60' W 093°55'0 0.0
2018-May-10 22:28N 29°60' W 093°55'0 0.0
2018-May-10 21:55N 29°60' W 093°55'0 0.0
2018-May-10 21:28N 29°60' W 093°55'0 0.0
2018-May-10 20:58N 29°60' W 093°55'0 0.0
2018-May-10 20:25N 29°60' W 093°55'0 0.0
2018-May-10 19:55N 29°60' W 093°55'0 0.0
2018-May-10 19:28N 29°60' W 093°55'0 0.0
2018-May-10 18:58N 29°60' W 093°55'0 0.0
2018-May-10 18:28N 29°60' W 093°55'0 0.0
2018-May-10 17:58N 29°60' W 093°55'0 0.0
2018-May-10 17:28N 29°60' W 093°55'0 0.0
2018-May-10 16:58N 29°60' W 093°55'0 0.0
2018-May-10 16:22N 29°60' W 093°55'0 0.9
2018-May-10 16:00N 29°59' W 093°54'3 5.4
2018-May-10 15:31N 29°58' W 093°52'  

Dump ship's entire track history